Flight Track Log - Related Links

Times and Time Zones

All times are in EDT time to prevent confusion due to time zone crossing. See the N7702B flight status page for this flight to view local times or setup timezone preferences in your user account.

Time Position Orientation Groundspeed Altitude Reporting Facility
EDT Latitude Longitude Course Direction KTS MPH feet Rate Location/Type
Wed 01:49:42 AM 30.1700 -83.9858 124° Southeast 149 171 5,500  Level Jacksonville Center
Wed 01:54:42 AM 30.0442 -83.7708 129° Southeast 160 184 5,500  Level Jacksonville Center
Wed 01:55:42 AM 30.0153 -83.7297 137° Southeast 160 184 5,500  Level Jacksonville Center
Wed 01:56:42 AM 29.9842 -83.6958 118° Southeast 160 184 5,500  Level Jacksonville Center
Wed 01:57:42 AM 29.9617 -83.6478 128° Southeast 160 184 5,500  Level Jacksonville Center
Wed 01:58:42 AM 29.9325 -83.6044 121° Southeast 165 190 5,500  Level Jacksonville Center
Wed 01:59:42 AM 29.9097 -83.5611 131° Southeast 165 190 5,500  Level Jacksonville Center
Wed 02:00:42 AM 29.8786 -83.5203 135° Southeast 165 190 5,500  Level Jacksonville Center
Wed 02:01:42 AM 29.8475 -83.4842 122° Southeast 165 190 5,500  Level Jacksonville Center
Wed 02:02:42 AM 29.8228 -83.4383 121° Southeast 165 190 5,500  Level Jacksonville Center
Wed 02:03:42 AM 29.8000 -83.3953 126° Southeast 160 184 5,500  Level Jacksonville Center
Wed 02:04:42 AM 29.7731 -83.3519 129° Southeast 160 184 5,500  Level Jacksonville Center
Wed 02:05:42 AM 29.7439 -83.3111 129° Southeast 160 184 5,500  Level Jacksonville Center
Wed 02:06:42 AM 29.7147 -83.2703 130° Southeast 160 184 5,500  Level Jacksonville Center
Wed 02:07:42 AM 29.6856 -83.2297 129° Southeast 160 184 5,500  Level Jacksonville Center
Wed 02:08:42 AM 29.6567 -83.1889 128° Southeast 173 199 5,500  Level Jacksonville Center
Wed 02:09:42 AM 29.6275 -83.1458 124° Southeast 166 191 5,500  Level Jacksonville Center
Wed 02:10:42 AM 29.6025 -83.1028 130° Southeast 166 191 5,500  Level Jacksonville Center
Wed 02:11:22 AM 29.5817 -83.0742 130° Southeast 165 190 5,500 -56 Level Jacksonville Center
Wed 02:12:29 AM 29.5503 -83.0311 124° Southeast 164 189 5,400  Descending Jacksonville Center
Wed 02:13:30 AM 29.5253 -82.9881 121° Southeast 162 186 5,500 50 Climbing Jacksonville Center
Wed 02:14:30 AM 29.5025 -82.9450 122° Southeast 161 185 5,500  Level Jacksonville Center
Wed 02:15:31 AM 29.4794 -82.9022 125° Southeast 161 185 5,500  Level Jacksonville Center
Wed 02:16:32 AM 29.4522 -82.8569 125° Southeast 161 185 5,500  Level Jacksonville Center
Wed 02:17:32 AM 29.4272 -82.8164 127° Southeast 159 183 5,500  Level Jacksonville Center
Wed 02:18:33 AM 29.4022 -82.7781 122° Southeast 156 180 5,500  Level Jacksonville Center
Wed 02:19:33 AM 29.3792 -82.7353 128° Southeast 155 178 5,500  Level Jacksonville Center
Wed 02:20:34 AM 29.3519 -82.6947 131° Southeast 154 177 5,500  Level Jacksonville Center
Wed 02:21:35 AM 29.3228 -82.6567 129° Southeast 154 177 5,500  Level Jacksonville Center
Wed 02:22:35 AM 29.2956 -82.6186 130° Southeast 154 177 5,500  Level Jacksonville Center
Wed 02:23:36 AM 29.2661 -82.5783 133° Southeast 154 177 5,500  Level Jacksonville Center
Wed 02:24:36 AM 29.2369 -82.5428 133° Southeast 157 181 5,500  Level Jacksonville Center
Wed 02:25:37 AM 29.2075 -82.5072 130° Southeast 157 181 5,500  Level Jacksonville Center
Wed 02:26:38 AM 29.1781 -82.4669 122° Southeast 158 182 5,500  Level Jacksonville Center
Wed 02:27:38 AM 29.1550 -82.4242 127° Southeast 157 181 5,500  Level Jacksonville Center
Wed 02:28:39 AM 29.1297 -82.3861 128° Southeast 157 181 5,500  Level Jacksonville Center
Wed 02:29:39 AM 29.1006 -82.3436 126° Southeast 158 182 5,500  Level Jacksonville Center
Wed 02:30:40 AM 29.0753 -82.3033 120° Southeast 157 181 5,500  Level Jacksonville Center
Wed 02:31:41 AM 29.0542 -82.2608 127° Southeast 159 183 5,500  Level Jacksonville Center
Wed 02:32:41 AM 29.0289 -82.2228 126° Southeast 156 180 5,500  Level Jacksonville Center
Wed 02:33:42 AM 29.0036 -82.1828 126° Southeast 154 177 5,500  Level Jacksonville Center
Wed 02:34:42 AM 28.9761 -82.1403 124° Southeast 157 181 5,500  Level Jacksonville Center
Wed 02:36:19 AM 28.9333 -82.0667 139° Southeast 155 178 5,500  Level Orlando TRACON
Wed 02:37:19 AM 28.9000 -82.0333 120° Southeast 155 178 5,500  Level Orlando TRACON
Wed 02:38:13 AM 28.8833 -82.0000 127° Southeast 158 182 5,500  Level Orlando TRACON
Wed 02:39:13 AM 28.8500 -81.9500 120° Southeast 159 183 5,500  Level Orlando TRACON
Wed 02:40:13 AM 28.8333 -81.9167 139° Southeast 158 182 5,500 -150 Level Orlando TRACON
Wed 02:41:13 AM 28.8000 -81.8833 111° Southeast 160 184 5,200 -316 Descending Orlando TRACON
Wed 02:42:07 AM 28.7833 -81.8333 139° Southeast 165 190 4,900 -316 Descending Orlando TRACON
Wed 02:43:07 AM 28.7500 -81.8000 127° Southeast 164 189 4,600 -350 Descending Orlando TRACON
Wed 02:44:07 AM 28.7167 -81.7500 120° Southeast 170 196 4,200 -400 Descending Orlando TRACON
Wed 02:45:07 AM 28.7000 -81.7167 127° Southeast 173 199 3,800 -350 Descending Orlando TRACON
Wed 02:46:07 AM 28.6667 -81.6667 139° Southeast 173 199 3,500 -100 Descending Orlando TRACON
Wed 02:47:07 AM 28.6333 -81.6333 111° Southeast 165 190 3,600  Climbing Orlando TRACON
Wed 02:48:07 AM 28.6167 -81.5833 139° Southeast 161 185 3,500 -50 Descending Orlando TRACON
Wed 02:49:07 AM 28.5833 -81.5500 127° Southeast 162 186 3,500 -50 Level Orlando TRACON
Wed 02:50:07 AM 28.5500 -81.5000 111° Southeast 160 184 3,400 -250 Descending Orlando TRACON
Wed 02:51:07 AM 28.5333 -81.4500 111° Southeast 170 196 3,000 -476 Descending Orlando TRACON
Wed 02:52:13 AM 28.5167 -81.4000 90° East 179 206 2,400 -429 Descending Orlando TRACON
Wed 02:53:13 AM 28.5167 -81.3500 90° East 147 169 2,100 -250 Descending Orlando TRACON
Wed 02:54:13 AM 28.5167 -81.3167 156° South 125 144 1,900 -450 Descending Orlando TRACON
Wed 02:55:13 AM 28.4833 -81.3000 180° South 107 123 1,200 -650 Descending Orlando TRACON
Wed 02:56:13 AM 28.4667 -81.3000 180° South 87 100 600 -154 Descending Orlando TRACON
Wed 02:59:07 AM 28.4167 -81.3000 360° North 79 91 600  Level Orlando TRACON
Wed 03:04:38 AM 28.4167 -81.3000 139° Southeast 83 96 600 66 Level Orlando TRACON
Wed 03:05:08 AM 28.4000 -81.2833 360° North 90 104 1,000 267 Climbing Orlando TRACON
Wed 03:06:08 AM 28.4333 -81.2833 360° North 108 124 1,000 -200 Level Orlando TRACON
Wed 03:07:08 AM 28.4500 -81.2833 204° Southwest 101 116 600 -111 Descending Orlando TRACON
Wed 03:09:44 AM 28.4167 -81.3000 41° Northeast 75 86 600 75 Level Orlando TRACON
Wed 03:11:08 AM 28.4333 -81.2833 360° North 109 125 900  Climbing Orlando TRACON
Wed 03:12:08 AM 28.4667 -81.2833 221° Southwest 101 116 600 -300 Descending Orlando TRACON
Wed 03:13:08 AM 28.4500 -81.3000 180° South 83 96 300  Descending Orlando TRACON
Wed 03:14:44 AM 28.4167 -81.3000 41° Northeast 91 105 600 233 Climbing Orlando TRACON
Wed 03:16:08 AM 28.4333 -81.2833 360° North 106 122 1,000  Climbing Orlando TRACON
Wed 03:17:08 AM 28.4667 -81.2833 196° South 101 116 600 -118 Descending Orlando TRACON
Wed 03:19:32 AM 28.4167 -81.3000 41° Northeast 96 110 600 114 Level Orlando TRACON
Wed 03:20:38 AM 28.4333 -81.2833 360° North 105 121 1,000 48 Climbing Orlando TRACON
Wed 03:21:38 AM 28.4500 -81.2833 270° West 107 123 700 -300 Descending Orlando TRACON
Wed 03:22:38 AM 28.4500 -81.3000 180° South 84 97 400  Descending Orlando TRACON
Wed 03:24:20 AM 28.4167 -81.3000 41° Northeast 87 100 700 199 Climbing Orlando TRACON
Wed 03:25:39 AM 28.4333 -81.2833 360° North 104 120 1,000  Climbing Orlando TRACON
Wed 03:26:39 AM 28.4667 -81.2833 192° South 109 125 700 -128 Descending Orlando TRACON
Wed 03:29:33 AM 28.4000 -81.3000 41° Northeast 98 113 500 75 Descending Orlando TRACON
Wed 03:30:39 AM 28.4167 -81.2833 221° Southwest 140 161 1,000 67 Climbing Orlando TRACON
Wed 03:34:03 AM 28.4000 -81.3000 41° Northeast 94 108 800 44 Descending Orlando TRACON
Wed 03:35:09 AM 28.4167 -81.2833 360° North 105 121 1,200 95 Climbing Orlando TRACON
Wed 03:36:09 AM 28.4500 -81.2833 319° Northwest 108 124 1,000 -350 Descending Orlando TRACON
Wed 03:37:09 AM 28.4667 -81.3000 180° South 90 104 500 -129 Descending Orlando TRACON
Wed 03:39:15 AM 28.4167 -81.3000 90° East 85 98 600 188 Climbing Orlando TRACON
Wed 03:40:21 AM 28.4167 -81.2833 360° North 106 122 1,100 238 Climbing Orlando TRACON
Wed 03:41:21 AM 28.4500 -81.2833 319° Northwest 104 120 1,100 -250 Level Orlando TRACON
Wed 03:42:21 AM 28.4667 -81.3000 180° South 89 102 600 -100 Descending Orlando TRACON
Wed 03:45:21 AM 28.4000 -81.3000 196° South 112 129 700 33 Climbing Orlando TRACON
Wed 03:49:32 AM 28.2313 -81.3567 196° South  Level Estimated

Login

Don't have an account? Register now (free) for customized features, flight alerts, and more!